Marvell, Arkansas
Current Conditions -  °F | °C
As of 8:15 AM on Wednesday 28 Jan 2015 (Local Time) from KCKM Reporting Station
Clear Clear  
Wind Chill: 33°   Ceiling: Unl
Heat Index: 39°   Visibility: 7mi
Dew Point: 32°   Wind: 9mph
Humidity: 75%   Direction: 120°ESE
Pressure: 30.3"   Gusts: NA
Location:  34.56°N, 90.91°W
Report Text: KCKM 281415Z AUTO 12008KT 7SM CLR 04/00 A3030 RMK AO1
Loading
Personal Weather Stations






























Interactive Weather Map New forecast layout! Learn more

10-Day Weather Forecast

Advertisements
Track Severe Weather on mobile